Tachibana — JD2357 — position and weather

sailwx.info

Track history (hours):
 
Tides and Currents Weather Stations Pressure Air Temp Water Temp Dewpoint Dewpoint Depression Visibility Wind Speed Wind Dir Waves Ship Positions

Tachibana

Last reported at 2018-Feb-23 08:30 UTC. Time now 2018-Feb-23 08:33 UTC.
Position N 35°27' E 139°42'.

Length 36 m; draft 3.9 m.

Type: Tug. MMSI: 431000123.

Date/timePositionNaut miles runAvg speedWind from/ knotsBaromVisibWave heightAir tempDewpointWater temp
2018-Feb-23 08:30N 35°27' E 139°42'1 1.7
2018-Feb-23 08:00N 35°28' E 139°41'0 0.1
2018-Feb-23 07:30N 35°28' E 139°41'1 1.9
2018-Feb-23 07:00N 35°27' E 139°42'0 0.0
2018-Feb-23 06:30N 35°27' E 139°42'0 0.0
2018-Feb-23 06:00N 35°27' E 139°42'0 0.0
2018-Feb-23 05:30N 35°27' E 139°42'0 0.0
2018-Feb-23 05:00N 35°27' E 139°42'0 0.0
2018-Feb-23 04:30N 35°27' E 139°42'0 0.0
2018-Feb-23 04:00N 35°27' E 139°42'0 0.1
2018-Feb-23 03:31N 35°27' E 139°42'2 4.1
2018-Feb-23 03:00N 35°28' E 139°44'0 0.0
2018-Feb-23 02:30N 35°28' E 139°44'0 0.7
2018-Feb-23 02:00N 35°28' E 139°44'0 0.0
2018-Feb-23 01:30N 35°28' E 139°44'0 0.0
2018-Feb-23 01:00N 35°28' E 139°44'0 0.0
2018-Feb-23 00:30N 35°28' E 139°44'2 4.9
2018-Feb-23 00:01N 35°26' E 139°43'4 8.0
2018-Feb-22 23:30N 35°23' E 139°40'1 1.3
2018-Feb-22 23:00N 35°22' E 139°39'0 0.1
2018-Feb-22 22:30N 35°23' E 139°39'0 0.0
2018-Feb-22 22:00N 35°23' E 139°39'4 7.9
2018-Feb-22 21:30N 35°26' E 139°42'2 4.4
2018-Feb-22 21:00N 35°27' E 139°39'0 0.0
2018-Feb-22 07:14N 35°27' E 139°39'0 0.0
2018-Feb-22 07:00N 35°27' E 139°39'0 0.0
2018-Feb-22 06:31N 35°27' E 139°39'0 0.0
2018-Feb-22 06:01N 35°27' E 139°39'0 0.0
2018-Feb-22 05:30N 35°27' E 139°39'0 0.0
2018-Feb-22 05:01N 35°27' E 139°39'1 2.6
2018-Feb-22 04:31N 35°27' E 139°41'3 6.1
2018-Feb-22 04:00N 35°28' E 139°44'0 0.0
2018-Feb-22 03:30N 35°28' E 139°44'0 0.0
2018-Feb-22 02:59N 35°28' E 139°44'0 0.3
2018-Feb-22 02:30N 35°28' E 139°44'2 3.0
2018-Feb-22 02:00N 35°27' E 139°44'0 0.8
2018-Feb-22 01:31N 35°26' E 139°44'4 8.2
2018-Feb-22 01:01N 35°27' E 139°39'0 0.0
2018-Feb-22 00:30N 35°27' E 139°39'0 0.0
2018-Feb-22 00:01N 35°27' E 139°39'0 0.0
2018-Feb-21 23:31N 35°27' E 139°39'0 0.0
2018-Feb-21 23:00N 35°27' E 139°39'0 0.0
2018-Feb-21 22:30N 35°27' E 139°39'0 0.1
2018-Feb-21 22:01N 35°27' E 139°39'0 0.1
2018-Feb-21 21:30N 35°27' E 139°39'0 0.1
2018-Feb-21 21:00N 35°27' E 139°39'0 0.0
2018-Feb-21 07:08N 35°27' E 139°39'0 0.0
2018-Feb-21 07:01N 35°27' E 139°39'0 0.0
2018-Feb-21 06:30N 35°27' E 139°39'0 0.0
2018-Feb-21 06:00N 35°27' E 139°39'0 0.0
2018-Feb-21 05:31N 35°27' E 139°39'0 0.1
2018-Feb-21 05:00N 35°27' E 139°39'0 0.1
2018-Feb-21 04:30N 35°27' E 139°39'0 0.1
2018-Feb-21 04:00N 35°27' E 139°39'0 0.0
2018-Feb-21 03:30N 35°27' E 139°39'2 4.4
2018-Feb-21 03:01N 35°27' E 139°42'2 4.7
2018-Feb-21 02:30N 35°28' E 139°44'0 0.0
2018-Feb-21 02:00N 35°28' E 139°44'0 0.0
2018-Feb-21 01:30N 35°28' E 139°44'0 0.3
2018-Feb-21 01:00N 35°28' E 139°44'2 3.9
2018-Feb-21 00:30N 35°26' E 139°45'1 2.8
2018-Feb-21 00:00N 35°26' E 139°44'2 4.1
2018-Feb-20 23:31N 35°27' E 139°41'0 0.8
2018-Feb-20 23:00N 35°27' E 139°41'2 3.2
2018-Feb-20 22:30N 35°26' E 139°43'1 1.9
2018-Feb-20 22:00N 35°26' E 139°44'4 7.8
2018-Feb-20 21:30N 35°27' E 139°39'0 0.1
2018-Feb-20 21:00N 35°27' E 139°39'0 0.0
2018-Feb-20 07:10N 35°27' E 139°39'0 0.0
2018-Feb-20 07:01N 35°27' E 139°39'0 0.0
2018-Feb-20 06:31N 35°27' E 139°39'0 0.0
2018-Feb-20 06:00N 35°27' E 139°39'0 0.0
2018-Feb-20 05:30N 35°27' E 139°39'0 0.0
2018-Feb-20 05:00N 35°27' E 139°39'0 0.0
2018-Feb-20 04:30N 35°27' E 139°39'0 0.0
2018-Feb-20 04:00N 35°27' E 139°39'0 0.5
2018-Feb-20 03:30N 35°27' E 139°39'1 2.8
2018-Feb-20 03:00N 35°27' E 139°41'1 2.6
2018-Feb-20 02:31N 35°26' E 139°42'1 1.5
2018-Feb-20 01:59N 35°27' E 139°42'0 0.0
2018-Feb-20 01:30N 35°27' E 139°42'0 0.0
2018-Feb-20 01:00N 35°27' E 139°42'0 0.0
2018-Feb-20 00:30N 35°27' E 139°42'0 0.0
2018-Feb-20 00:00N 35°27' E 139°42'1 1.7
2018-Feb-19 23:31N 35°26' E 139°42'4 9.0
2018-Feb-19 23:01N 35°22' E 139°39'0 0.4
2018-Feb-19 22:30N 35°23' E 139°39'2 3.0
2018-Feb-19 22:00N 35°23' E 139°41'0 0.9
2018-Feb-19 21:30N 35°23' E 139°42'4 7.3
2018-Feb-19 21:00N 35°27' E 139°41'2 3.1
2018-Feb-19 20:30N 35°27' E 139°39'0 0.0
2018-Feb-19 07:10N 35°27' E 139°39'0 0.3
2018-Feb-19 07:01N 35°27' E 139°39'0 0.1
2018-Feb-19 06:31N 35°27' E 139°39'0 0.0
2018-Feb-19 06:01N 35°27' E 139°39'0 0.1
2018-Feb-19 05:31N 35°27' E 139°39'0 0.0
2018-Feb-19 05:01N 35°27' E 139°39'0 0.0
2018-Feb-19 04:31N 35°27' E 139°39'0 0.0
2018-Feb-19 04:01N 35°27' E 139°39'2 5.0
2018-Feb-19 03:31N 35°27' E 139°42'3 5.3
2018-Feb-19 03:01N 35°29' E 139°45'0 0.3
2018-Feb-19 02:30N 35°29' E 139°44'1 1.5
2018-Feb-19 02:00N 35°29' E 139°45'0 0.0
2018-Feb-19 01:30N 35°29' E 139°45'0 0.0
2018-Feb-19 01:00N 35°29' E 139°45'0 0.0
2018-Feb-19 00:30N 35°29' E 139°45'0 0.0
2018-Feb-19 00:00N 35°29' E 139°45'1 1.4
2018-Feb-18 23:30N 35°29' E 139°44'0 0.0
2018-Feb-18 23:00N 35°29' E 139°44'1 1.2
2018-Feb-18 22:30N 35°28' E 139°45'1 2.7
2018-Feb-18 22:00N 35°27' E 139°46'2 4.7
2018-Feb-18 21:30N 35°27' E 139°43'3 6.2
2018-Feb-18 21:00N 35°27' E 139°39'0 0.0
2018-Feb-18 20:30N 35°27' E 139°39'0 0.0
2018-Feb-18 09:39N 35°27' E 139°39'1 4.0
2018-Feb-18 09:30N 35°27' E 139°40'1 2.4
2018-Feb-18 09:00N 35°27' E 139°41'0 0.0
2018-Feb-18 08:30N 35°27' E 139°41'1 1.1
2018-Feb-18 07:59N 35°27' E 139°42'0 0.0
2018-Feb-18 07:30N 35°27' E 139°42'1 2.1
2018-Feb-18 07:01N 35°26' E 139°41'2 4.4
2018-Feb-18 06:30N 35°26' E 139°44'1 2.7
2018-Feb-18 06:00N 35°27' E 139°45'5 9.1
2018-Feb-18 05:30N 35°27' E 139°39'0 0.1
2018-Feb-18 05:00N 35°27' E 139°39'0 0.0
2018-Feb-18 04:31N 35°27' E 139°39'0 0.0
2018-Feb-18 04:00N 35°27' E 139°39'0 0.0
2018-Feb-18 03:30N 35°27' E 139°39'2 3.7
2018-Feb-18 03:00N 35°27' E 139°42'3 6.3
2018-Feb-18 02:31N 35°24' E 139°40'1 2.5
2018-Feb-18 02:00N 35°24' E 139°39'1 1.1
2018-Feb-18 01:31N 35°24' E 139°38'0 0.1
2018-Feb-18 01:00N 35°24' E 139°38'1 2.8
2018-Feb-18 00:30N 35°24' E 139°40'0 0.0
2018-Feb-18 00:00N 35°24' E 139°40'0 0.0
2018-Feb-17 23:30N 35°24' E 139°40'1 2.5
2018-Feb-17 23:01N 35°24' E 139°41'1 1.3
2018-Feb-17 22:30N 35°24' E 139°41'2 4.8
2018-Feb-17 22:01N 35°22' E 139°42'611.5
2018-Feb-17 21:30N 35°27' E 139°40'1 1.9
2018-Feb-17 21:00N 35°27' E 139°39'0 0.0
2018-Feb-17 20:30N 35°27' E 139°39'0 0.0
2018-Feb-17 20:00N 35°27' E 139°39'0 0.0
2018-Feb-17 07:03N 35°27' E 139°39'0 0.0
2018-Feb-17 07:00N 35°27' E 139°39'0 0.0
2018-Feb-17 06:30N 35°27' E 139°39'0 0.0
2018-Feb-17 06:00N 35°27' E 139°39'1 2.4
2018-Feb-17 05:31N 35°27' E 139°41'4 8.3
2018-Feb-17 05:00N 35°28' E 139°46'1 2.4
2018-Feb-17 04:30N 35°29' E 139°47'0 0.2
2018-Feb-17 04:00N 35°29' E 139°47'2 4.4
2018-Feb-17 03:30N 35°27' E 139°47'1 1.1
2018-Feb-17 03:00N 35°27' E 139°46'4 8.3
2018-Feb-17 02:30N 35°27' E 139°41'1 2.3
2018-Feb-17 02:00N 35°27' E 139°39'0 0.0
2018-Feb-17 01:30N 35°27' E 139°39'0 0.0
2018-Feb-17 01:00N 35°27' E 139°39'0 0.0
2018-Feb-17 00:30N 35°27' E 139°39'0 0.0
2018-Feb-17 00:00N 35°27' E 139°39'0 0.0
2018-Feb-16 23:30N 35°27' E 139°39'2 3.2
2018-Feb-16 23:00N 35°27' E 139°41'1 2.9
2018-Feb-16 22:30N 35°26' E 139°43'1 1.3
2018-Feb-16 22:00N 35°25' E 139°43'3 6.4
2018-Feb-16 21:30N 35°27' E 139°39'0 0.0
2018-Feb-16 20:46N 35°27' E 139°39'0 0.0
2018-Feb-16 20:30N 35°27' E 139°39'0 0.0
2018-Feb-16 20:00N 35°27' E 139°39'0 0.0
2018-Feb-16 19:30N 35°27' E 139°39'0 0.0
2018-Feb-16 19:00N 35°27' E 139°39'0 0.0
2018-Feb-16 18:30N 35°27' E 139°39'0 0.1
2018-Feb-16 18:00N 35°27' E 139°39'0 0.1
2018-Feb-16 17:30N 35°27' E 139°39'0 0.0
2018-Feb-16 17:00N 35°27' E 139°39'0 0.0
2018-Feb-16 16:30N 35°27' E 139°39'0 0.0
2018-Feb-16 16:00N 35°27' E 139°39'0 0.0
2018-Feb-16 15:30N 35°27' E 139°39'0 0.0
2018-Feb-16 15:00N 35°27' E 139°39'0 0.0
2018-Feb-16 14:30N 35°27' E 139°39'0 0.0
2018-Feb-16 14:00N 35°27' E 139°39'0 0.0
2018-Feb-16 13:30N 35°27' E 139°39'0 0.0
2018-Feb-16 13:00N 35°27' E 139°39'0 0.0
2018-Feb-16 12:30N 35°27' E 139°39'0 0.0
2018-Feb-16 12:00N 35°27' E 139°39'0 0.0
2018-Feb-16 11:30N 35°27' E 139°39'0 0.0
2018-Feb-16 11:00N 35°27' E 139°39'0 0.0
2018-Feb-16 10:30N 35°27' E 139°39'2 4.8
2018-Feb-16 10:00N 35°27' E 139°42'2 3.7
2018-Feb-16 09:30N 35°28' E 139°41'1 1.8
2018-Feb-16 09:00N 35°28' E 139°42'1 1.1
2018-Feb-16 08:30N 35°28' E 139°42'0 0.0
2018-Feb-16 08:00N 35°28' E 139°42'0 0.0
2018-Feb-16 07:30N 35°28' E 139°42'4 7.9
2018-Feb-16 07:00N 35°29' E 139°47'611.6
2018-Feb-16 06:27N 35°30' E 139°54'3 7.4
2018-Feb-16 06:00N 35°28' E 139°58'0 0.0
2018-Feb-16 05:30N 35°28' E 139°58'0 0.1
2018-Feb-16 05:00N 35°28' E 139°58'1 2.3
2018-Feb-16 04:30N 35°29' E 139°57'1 2.0
2018-Feb-16 04:01N 35°30' E 139°56'1 2.1
2018-Feb-16 03:30N 35°29' E 139°55'4 8.7
2018-Feb-16 03:00N 35°28' E 139°50'4 8.5
2018-Feb-16 02:30N 35°27' E 139°45'4 8.9
2018-Feb-16 02:01N 35°27' E 139°39'0 0.6
2018-Feb-16 01:30N 35°27' E 139°39'0 0.0
2018-Feb-16 01:00N 35°27' E 139°39'0 0.0
2018-Feb-16 00:30N 35°27' E 139°39'0 0.0
2018-Feb-16 00:00N 35°27' E 139°39'0 0.0
2018-Feb-15 23:30N 35°27' E 139°39'0 0.0
2018-Feb-14 23:27N 35°27' E 139°39'1 3.1
2018-Feb-14 23:00N 35°26' E 139°41'1 2.4
2018-Feb-14 22:30N 35°26' E 139°42'0 1.0
2018-Feb-14 22:00N 35°26' E 139°42'0 0.9
2018-Feb-14 21:30N 35°26' E 139°42'0 0.0
2018-Feb-14 21:00N 35°26' E 139°42'0 0.1
2018-Feb-14 20:30N 35°26' E 139°42'1 1.5
2018-Feb-14 20:01N 35°26' E 139°41'0 0.1
2018-Feb-14 19:30N 35°26' E 139°41'1 2.4
2018-Feb-14 19:00N 35°27' E 139°42'0 0.0
2018-Feb-14 18:30N 35°27' E 139°42'0 0.0
2018-Feb-14 18:00N 35°27' E 139°42'0 0.0
2018-Feb-14 17:30N 35°27' E 139°42'0 0.0
2018-Feb-14 17:00N 35°27' E 139°42'0 0.0
2018-Feb-14 16:30N 35°27' E 139°42'0 0.0
2018-Feb-14 16:00N 35°27' E 139°42'0 0.0
2018-Feb-14 15:31N 35°27' E 139°42'1 1.6
2018-Feb-14 15:00N 35°27' E 139°41'0 0.5
2018-Feb-14 14:30N 35°26' E 139°41'1 1.9
2018-Feb-14 14:00N 35°27' E 139°42'0 0.0
2018-Feb-14 13:30N 35°27' E 139°42'0 0.0
2018-Feb-14 13:00N 35°27' E 139°42'1 1.6
2018-Feb-14 12:30N 35°28' E 139°42'0 0.8
2018-Feb-14 12:00N 35°28' E 139°42'2 4.4
2018-Feb-14 11:31N 35°27' E 139°44'2 3.7
2018-Feb-14 11:01N 35°27' E 139°42'0 0.0
2018-Feb-14 10:31N 35°27' E 139°42'0 0.0
2018-Feb-14 10:00N 35°27' E 139°42'0 0.0
2018-Feb-14 09:30N 35°27' E 139°42'0 0.0
2018-Feb-14 09:00N 35°27' E 139°42'0 0.0
2018-Feb-14 08:30N 35°27' E 139°42'0 0.0
2018-Feb-14 08:01N 35°27' E 139°42'2 3.2
2018-Feb-14 07:30N 35°27' E 139°40'0 0.8
2018-Feb-14 07:00N 35°28' E 139°40'0 0.8
2018-Feb-14 06:30N 35°28' E 139°40'1 2.7
2018-Feb-14 06:00N 35°27' E 139°39'0 0.0
2018-Feb-14 05:30N 35°27' E 139°39'0 0.0
2018-Feb-14 05:01N 35°27' E 139°39'0 0.0
2018-Feb-14 04:30N 35°27' E 139°39'0 0.0
2018-Feb-14 04:01N 35°27' E 139°39'0 0.0
2018-Feb-14 03:30N 35°27' E 139°39'0 0.0
2018-Feb-14 03:00N 35°27' E 139°39'0 0.0
2018-Feb-14 02:30N 35°27' E 139°39'0 0.0
2018-Feb-14 02:00N 35°27' E 139°39'0 0.0
2018-Feb-14 01:30N 35°27' E 139°39'0 0.0
2018-Feb-14 01:00N 35°27' E 139°39'0 0.0
2018-Feb-14 00:30N 35°27' E 139°39'0 0.0
2018-Feb-14 00:00N 35°27' E 139°39'0 0.0
2018-Feb-13 23:31N 35°27' E 139°39'0 0.0
2018-Feb-13 23:01N 35°27' E 139°39'0 0.0
2018-Feb-13 22:30N 35°27' E 139°39'0 0.0
2018-Feb-13 22:00N 35°27' E 139°39'0 0.0
2018-Feb-13 21:30N 35°27' E 139°39'0 0.0
2018-Feb-13 21:00N 35°27' E 139°39'0 0.0
2018-Feb-13 20:30N 35°27' E 139°39'0 0.0
2018-Feb-13 20:00N 35°27' E 139°39'  
Track history (hours):
 
Tides and Currents Weather Stations Pressure Air Temp Water Temp Dewpoint Dewpoint Depression Visibility Wind Speed Wind Dir Waves Ship Positions

Tachibana

Last reported at 2018-Feb-23 08:30 UTC. Time now 2018-Feb-23 08:33 UTC.
Position N 35°27' E 139°42'.

Length 36 m; draft 3.9 m.

Type: Tug. MMSI: 431000123.

Date/timePositionNaut miles runAvg speedWind from/ knotsBaromVisibWave heightAir tempDewpointWater temp
2018-Feb-23 08:30N 35°27' E 139°42'1 1.7
2018-Feb-23 08:00N 35°28' E 139°41'0 0.1
2018-Feb-23 07:30N 35°28' E 139°41'1 1.9
2018-Feb-23 07:00N 35°27' E 139°42'0 0.0
2018-Feb-23 06:30N 35°27' E 139°42'0 0.0
2018-Feb-23 06:00N 35°27' E 139°42'0 0.0
2018-Feb-23 05:30N 35°27' E 139°42'0 0.0
2018-Feb-23 05:00N 35°27' E 139°42'0 0.0
2018-Feb-23 04:30N 35°27' E 139°42'0 0.0
2018-Feb-23 04:00N 35°27' E 139°42'0 0.1
2018-Feb-23 03:31N 35°27' E 139°42'2 4.1
2018-Feb-23 03:00N 35°28' E 139°44'0 0.0
2018-Feb-23 02:30N 35°28' E 139°44'0 0.7
2018-Feb-23 02:00N 35°28' E 139°44'0 0.0
2018-Feb-23 01:30N 35°28' E 139°44'0 0.0
2018-Feb-23 01:00N 35°28' E 139°44'0 0.0
2018-Feb-23 00:30N 35°28' E 139°44'2 4.9
2018-Feb-23 00:01N 35°26' E 139°43'4 8.0
2018-Feb-22 23:30N 35°23' E 139°40'1 1.3
2018-Feb-22 23:00N 35°22' E 139°39'0 0.1
2018-Feb-22 22:30N 35°23' E 139°39'0 0.0
2018-Feb-22 22:00N 35°23' E 139°39'4 7.9
2018-Feb-22 21:30N 35°26' E 139°42'2 4.4
2018-Feb-22 21:00N 35°27' E 139°39'0 0.0
2018-Feb-22 07:14N 35°27' E 139°39'0 0.0
2018-Feb-22 07:00N 35°27' E 139°39'0 0.0
2018-Feb-22 06:31N 35°27' E 139°39'0 0.0
2018-Feb-22 06:01N 35°27' E 139°39'0 0.0
2018-Feb-22 05:30N 35°27' E 139°39'0 0.0
2018-Feb-22 05:01N 35°27' E 139°39'1 2.6
2018-Feb-22 04:31N 35°27' E 139°41'3 6.1
2018-Feb-22 04:00N 35°28' E 139°44'0 0.0
2018-Feb-22 03:30N 35°28' E 139°44'0 0.0
2018-Feb-22 02:59N 35°28' E 139°44'0 0.3
2018-Feb-22 02:30N 35°28' E 139°44'2 3.0
2018-Feb-22 02:00N 35°27' E 139°44'0 0.8
2018-Feb-22 01:31N 35°26' E 139°44'4 8.2
2018-Feb-22 01:01N 35°27' E 139°39'0 0.0
2018-Feb-22 00:30N 35°27' E 139°39'0 0.0
2018-Feb-22 00:01N 35°27' E 139°39'0 0.0
2018-Feb-21 23:31N 35°27' E 139°39'0 0.0
2018-Feb-21 23:00N 35°27' E 139°39'0 0.0
2018-Feb-21 22:30N 35°27' E 139°39'0 0.1
2018-Feb-21 22:01N 35°27' E 139°39'0 0.1
2018-Feb-21 21:30N 35°27' E 139°39'0 0.1
2018-Feb-21 21:00N 35°27' E 139°39'0 0.0
2018-Feb-21 07:08N 35°27' E 139°39'0 0.0
2018-Feb-21 07:01N 35°27' E 139°39'0 0.0
2018-Feb-21 06:30N 35°27' E 139°39'0 0.0
2018-Feb-21 06:00N 35°27' E 139°39'0 0.0
2018-Feb-21 05:31N 35°27' E 139°39'0 0.1
2018-Feb-21 05:00N 35°27' E 139°39'0 0.1
2018-Feb-21 04:30N 35°27' E 139°39'0 0.1
2018-Feb-21 04:00N 35°27' E 139°39'0 0.0
2018-Feb-21 03:30N 35°27' E 139°39'2 4.4
2018-Feb-21 03:01N 35°27' E 139°42'2 4.7
2018-Feb-21 02:30N 35°28' E 139°44'0 0.0
2018-Feb-21 02:00N 35°28' E 139°44'0 0.0
2018-Feb-21 01:30N 35°28' E 139°44'0 0.3
2018-Feb-21 01:00N 35°28' E 139°44'2 3.9
2018-Feb-21 00:30N 35°26' E 139°45'1 2.8
2018-Feb-21 00:00N 35°26' E 139°44'2 4.1
2018-Feb-20 23:31N 35°27' E 139°41'0 0.8
2018-Feb-20 23:00N 35°27' E 139°41'2 3.2
2018-Feb-20 22:30N 35°26' E 139°43'1 1.9
2018-Feb-20 22:00N 35°26' E 139°44'4 7.8
2018-Feb-20 21:30N 35°27' E 139°39'0 0.1
2018-Feb-20 21:00N 35°27' E 139°39'0 0.0
2018-Feb-20 07:10N 35°27' E 139°39'0 0.0
2018-Feb-20 07:01N 35°27' E 139°39'0 0.0
2018-Feb-20 06:31N 35°27' E 139°39'0 0.0
2018-Feb-20 06:00N 35°27' E 139°39'0 0.0
2018-Feb-20 05:30N 35°27' E 139°39'0 0.0
2018-Feb-20 05:00N 35°27' E 139°39'0 0.0
2018-Feb-20 04:30N 35°27' E 139°39'0 0.0
2018-Feb-20 04:00N 35°27' E 139°39'0 0.5
2018-Feb-20 03:30N 35°27' E 139°39'1 2.8
2018-Feb-20 03:00N 35°27' E 139°41'1 2.6
2018-Feb-20 02:31N 35°26' E 139°42'1 1.5
2018-Feb-20 01:59N 35°27' E 139°42'0 0.0
2018-Feb-20 01:30N 35°27' E 139°42'0 0.0
2018-Feb-20 01:00N 35°27' E 139°42'0 0.0
2018-Feb-20 00:30N 35°27' E 139°42'0 0.0
2018-Feb-20 00:00N 35°27' E 139°42'1 1.7
2018-Feb-19 23:31N 35°26' E 139°42'4 9.0
2018-Feb-19 23:01N 35°22' E 139°39'0 0.4
2018-Feb-19 22:30N 35°23' E 139°39'2 3.0
2018-Feb-19 22:00N 35°23' E 139°41'0 0.9
2018-Feb-19 21:30N 35°23' E 139°42'4 7.3
2018-Feb-19 21:00N 35°27' E 139°41'2 3.1
2018-Feb-19 20:30N 35°27' E 139°39'0 0.0
2018-Feb-19 07:10N 35°27' E 139°39'0 0.3
2018-Feb-19 07:01N 35°27' E 139°39'0 0.1
2018-Feb-19 06:31N 35°27' E 139°39'0 0.0
2018-Feb-19 06:01N 35°27' E 139°39'0 0.1
2018-Feb-19 05:31N 35°27' E 139°39'0 0.0
2018-Feb-19 05:01N 35°27' E 139°39'0 0.0
2018-Feb-19 04:31N 35°27' E 139°39'0 0.0
2018-Feb-19 04:01N 35°27' E 139°39'2 5.0
2018-Feb-19 03:31N 35°27' E 139°42'3 5.3
2018-Feb-19 03:01N 35°29' E 139°45'0 0.3
2018-Feb-19 02:30N 35°29' E 139°44'1 1.5
2018-Feb-19 02:00N 35°29' E 139°45'0 0.0
2018-Feb-19 01:30N 35°29' E 139°45'0 0.0
2018-Feb-19 01:00N 35°29' E 139°45'0 0.0
2018-Feb-19 00:30N 35°29' E 139°45'0 0.0
2018-Feb-19 00:00N 35°29' E 139°45'1 1.4
2018-Feb-18 23:30N 35°29' E 139°44'0 0.0
2018-Feb-18 23:00N 35°29' E 139°44'1 1.2
2018-Feb-18 22:30N 35°28' E 139°45'1 2.7
2018-Feb-18 22:00N 35°27' E 139°46'2 4.7
2018-Feb-18 21:30N 35°27' E 139°43'3 6.2
2018-Feb-18 21:00N 35°27' E 139°39'0 0.0
2018-Feb-18 20:30N 35°27' E 139°39'0 0.0
2018-Feb-18 09:39N 35°27' E 139°39'1 4.0
2018-Feb-18 09:30N 35°27' E 139°40'1 2.4
2018-Feb-18 09:00N 35°27' E 139°41'0 0.0
2018-Feb-18 08:30N 35°27' E 139°41'1 1.1
2018-Feb-18 07:59N 35°27' E 139°42'0 0.0
2018-Feb-18 07:30N 35°27' E 139°42'1 2.1
2018-Feb-18 07:01N 35°26' E 139°41'2 4.4
2018-Feb-18 06:30N 35°26' E 139°44'1 2.7
2018-Feb-18 06:00N 35°27' E 139°45'5 9.1
2018-Feb-18 05:30N 35°27' E 139°39'0 0.1
2018-Feb-18 05:00N 35°27' E 139°39'0 0.0
2018-Feb-18 04:31N 35°27' E 139°39'0 0.0
2018-Feb-18 04:00N 35°27' E 139°39'0 0.0
2018-Feb-18 03:30N 35°27' E 139°39'2 3.7
2018-Feb-18 03:00N 35°27' E 139°42'3 6.3
2018-Feb-18 02:31N 35°24' E 139°40'1 2.5
2018-Feb-18 02:00N 35°24' E 139°39'1 1.1
2018-Feb-18 01:31N 35°24' E 139°38'0 0.1
2018-Feb-18 01:00N 35°24' E 139°38'1 2.8
2018-Feb-18 00:30N 35°24' E 139°40'0 0.0
2018-Feb-18 00:00N 35°24' E 139°40'0 0.0
2018-Feb-17 23:30N 35°24' E 139°40'1 2.5
2018-Feb-17 23:01N 35°24' E 139°41'1 1.3
2018-Feb-17 22:30N 35°24' E 139°41'2 4.8
2018-Feb-17 22:01N 35°22' E 139°42'611.5
2018-Feb-17 21:30N 35°27' E 139°40'1 1.9
2018-Feb-17 21:00N 35°27' E 139°39'0 0.0
2018-Feb-17 20:30N 35°27' E 139°39'0 0.0
2018-Feb-17 20:00N 35°27' E 139°39'0 0.0
2018-Feb-17 07:03N 35°27' E 139°39'0 0.0
2018-Feb-17 07:00N 35°27' E 139°39'0 0.0
2018-Feb-17 06:30N 35°27' E 139°39'0 0.0
2018-Feb-17 06:00N 35°27' E 139°39'1 2.4
2018-Feb-17 05:31N 35°27' E 139°41'4 8.3
2018-Feb-17 05:00N 35°28' E 139°46'1 2.4
2018-Feb-17 04:30N 35°29' E 139°47'0 0.2
2018-Feb-17 04:00N 35°29' E 139°47'2 4.4
2018-Feb-17 03:30N 35°27' E 139°47'1 1.1
2018-Feb-17 03:00N 35°27' E 139°46'4 8.3
2018-Feb-17 02:30N 35°27' E 139°41'1 2.3
2018-Feb-17 02:00N 35°27' E 139°39'0 0.0
2018-Feb-17 01:30N 35°27' E 139°39'0 0.0
2018-Feb-17 01:00N 35°27' E 139°39'0 0.0
2018-Feb-17 00:30N 35°27' E 139°39'0 0.0
2018-Feb-17 00:00N 35°27' E 139°39'0 0.0
2018-Feb-16 23:30N 35°27' E 139°39'2 3.2
2018-Feb-16 23:00N 35°27' E 139°41'1 2.9
2018-Feb-16 22:30N 35°26' E 139°43'1 1.3
2018-Feb-16 22:00N 35°25' E 139°43'3 6.4
2018-Feb-16 21:30N 35°27' E 139°39'0 0.0
2018-Feb-16 20:46N 35°27' E 139°39'0 0.0
2018-Feb-16 20:30N 35°27' E 139°39'0 0.0
2018-Feb-16 20:00N 35°27' E 139°39'0 0.0
2018-Feb-16 19:30N 35°27' E 139°39'0 0.0
2018-Feb-16 19:00N 35°27' E 139°39'0 0.0
2018-Feb-16 18:30N 35°27' E 139°39'0 0.1
2018-Feb-16 18:00N 35°27' E 139°39'0 0.1
2018-Feb-16 17:30N 35°27' E 139°39'0 0.0
2018-Feb-16 17:00N 35°27' E 139°39'0 0.0
2018-Feb-16 16:30N 35°27' E 139°39'0 0.0
2018-Feb-16 16:00N 35°27' E 139°39'0 0.0
2018-Feb-16 15:30N 35°27' E 139°39'0 0.0
2018-Feb-16 15:00N 35°27' E 139°39'0 0.0
2018-Feb-16 14:30N 35°27' E 139°39'0 0.0
2018-Feb-16 14:00N 35°27' E 139°39'0 0.0
2018-Feb-16 13:30N 35°27' E 139°39'0 0.0
2018-Feb-16 13:00N 35°27' E 139°39'0 0.0
2018-Feb-16 12:30N 35°27' E 139°39'0 0.0
2018-Feb-16 12:00N 35°27' E 139°39'0 0.0
2018-Feb-16 11:30N 35°27' E 139°39'0 0.0
2018-Feb-16 11:00N 35°27' E 139°39'0 0.0
2018-Feb-16 10:30N 35°27' E 139°39'2 4.8
2018-Feb-16 10:00N 35°27' E 139°42'2 3.7
2018-Feb-16 09:30N 35°28' E 139°41'1 1.8
2018-Feb-16 09:00N 35°28' E 139°42'1 1.1
2018-Feb-16 08:30N 35°28' E 139°42'0 0.0
2018-Feb-16 08:00N 35°28' E 139°42'0 0.0
2018-Feb-16 07:30N 35°28' E 139°42'4 7.9
2018-Feb-16 07:00N 35°29' E 139°47'611.6
2018-Feb-16 06:27N 35°30' E 139°54'3 7.4
2018-Feb-16 06:00N 35°28' E 139°58'0 0.0
2018-Feb-16 05:30N 35°28' E 139°58'0 0.1
2018-Feb-16 05:00N 35°28' E 139°58'1 2.3
2018-Feb-16 04:30N 35°29' E 139°57'1 2.0
2018-Feb-16 04:01N 35°30' E 139°56'1 2.1
2018-Feb-16 03:30N 35°29' E 139°55'4 8.7
2018-Feb-16 03:00N 35°28' E 139°50'4 8.5
2018-Feb-16 02:30N 35°27' E 139°45'4 8.9
2018-Feb-16 02:01N 35°27' E 139°39'0 0.6
2018-Feb-16 01:30N 35°27' E 139°39'0 0.0
2018-Feb-16 01:00N 35°27' E 139°39'0 0.0
2018-Feb-16 00:30N 35°27' E 139°39'0 0.0
2018-Feb-16 00:00N 35°27' E 139°39'0 0.0
2018-Feb-15 23:30N 35°27' E 139°39'0 0.0
2018-Feb-14 23:27N 35°27' E 139°39'1 3.1
2018-Feb-14 23:00N 35°26' E 139°41'1 2.4
2018-Feb-14 22:30N 35°26' E 139°42'0 1.0
2018-Feb-14 22:00N 35°26' E 139°42'0 0.9
2018-Feb-14 21:30N 35°26' E 139°42'0 0.0
2018-Feb-14 21:00N 35°26' E 139°42'0 0.1
2018-Feb-14 20:30N 35°26' E 139°42'1 1.5
2018-Feb-14 20:01N 35°26' E 139°41'0 0.1
2018-Feb-14 19:30N 35°26' E 139°41'1 2.4
2018-Feb-14 19:00N 35°27' E 139°42'0 0.0
2018-Feb-14 18:30N 35°27' E 139°42'0 0.0
2018-Feb-14 18:00N 35°27' E 139°42'0 0.0
2018-Feb-14 17:30N 35°27' E 139°42'0 0.0
2018-Feb-14 17:00N 35°27' E 139°42'0 0.0
2018-Feb-14 16:30N 35°27' E 139°42'0 0.0
2018-Feb-14 16:00N 35°27' E 139°42'0 0.0
2018-Feb-14 15:31N 35°27' E 139°42'1 1.6
2018-Feb-14 15:00N 35°27' E 139°41'0 0.5
2018-Feb-14 14:30N 35°26' E 139°41'1 1.9
2018-Feb-14 14:00N 35°27' E 139°42'0 0.0
2018-Feb-14 13:30N 35°27' E 139°42'0 0.0
2018-Feb-14 13:00N 35°27' E 139°42'1 1.6
2018-Feb-14 12:30N 35°28' E 139°42'0 0.8
2018-Feb-14 12:00N 35°28' E 139°42'2 4.4
2018-Feb-14 11:31N 35°27' E 139°44'2 3.7
2018-Feb-14 11:01N 35°27' E 139°42'0 0.0
2018-Feb-14 10:31N 35°27' E 139°42'0 0.0
2018-Feb-14 10:00N 35°27' E 139°42'0 0.0
2018-Feb-14 09:30N 35°27' E 139°42'0 0.0
2018-Feb-14 09:00N 35°27' E 139°42'0 0.0
2018-Feb-14 08:30N 35°27' E 139°42'0 0.0
2018-Feb-14 08:01N 35°27' E 139°42'2 3.2
2018-Feb-14 07:30N 35°27' E 139°40'0 0.8
2018-Feb-14 07:00N 35°28' E 139°40'0 0.8
2018-Feb-14 06:30N 35°28' E 139°40'1 2.7
2018-Feb-14 06:00N 35°27' E 139°39'0 0.0
2018-Feb-14 05:30N 35°27' E 139°39'0 0.0
2018-Feb-14 05:01N 35°27' E 139°39'0 0.0
2018-Feb-14 04:30N 35°27' E 139°39'0 0.0
2018-Feb-14 04:01N 35°27' E 139°39'0 0.0
2018-Feb-14 03:30N 35°27' E 139°39'0 0.0
2018-Feb-14 03:00N 35°27' E 139°39'0 0.0
2018-Feb-14 02:30N 35°27' E 139°39'0 0.0
2018-Feb-14 02:00N 35°27' E 139°39'0 0.0
2018-Feb-14 01:30N 35°27' E 139°39'0 0.0
2018-Feb-14 01:00N 35°27' E 139°39'0 0.0
2018-Feb-14 00:30N 35°27' E 139°39'0 0.0
2018-Feb-14 00:00N 35°27' E 139°39'0 0.0
2018-Feb-13 23:31N 35°27' E 139°39'0 0.0
2018-Feb-13 23:01N 35°27' E 139°39'0 0.0
2018-Feb-13 22:30N 35°27' E 139°39'0 0.0
2018-Feb-13 22:00N 35°27' E 139°39'0 0.0
2018-Feb-13 21:30N 35°27' E 139°39'0 0.0
2018-Feb-13 21:00N 35°27' E 139°39'0 0.0
2018-Feb-13 20:30N 35°27' E 139°39'0 0.0
2018-Feb-13 20:00N 35°27' E 139°39'  

Dump ship's entire track history